createdAt,value
2019-04-01T00:00:19.354Z,96254.93
2019-04-01T00:02:45.286Z,96260.36
2019-04-01T00:05:11.749Z,96254.38
2019-04-01T00:07:37.875Z,96250.91
2019-04-01T00:10:04.126Z,96251.59
2019-04-01T00:12:30.263Z,96252.86
2019-04-01T00:14:56.426Z,96248.89
2019-04-01T00:17:22.560Z,96247.24
2019-04-01T00:19:48.607Z,96250.46
2019-04-01T00:22:14.732Z,96260.34
2019-04-01T00:24:40.770Z,96253.36
2019-04-01T00:27:06.899Z,96250.61
2019-04-01T00:29:33.038Z,96250.37
2019-04-01T00:31:59.165Z,96246.46
2019-04-01T00:34:25.187Z,96243.33
2019-04-01T00:36:51.306Z,96248.50
2019-04-01T00:39:17.421Z,96253.20
2019-04-01T00:44:29.789Z,96246.70
2019-04-01T00:46:55.958Z,96251.00
2019-04-01T00:49:21.996Z,96249.48
2019-04-01T00:51:48.114Z,96247.34
2019-04-01T00:54:14.234Z,96248.36
2019-04-01T00:56:40.364Z,96247.39
2019-04-01T00:59:06.485Z,96244.31
2019-04-01T01:01:32.712Z,96252.03
2019-04-01T01:03:58.739Z,96249.09
2019-04-01T01:06:24.971Z,96254.42
2019-04-01T01:08:51.104Z,96255.87
2019-04-01T01:11:17.225Z,96257.49
2019-04-01T01:13:43.365Z,96250.08
2019-04-01T01:16:09.514Z,96254.53
2019-04-01T01:18:35.632Z,96254.03
2019-04-01T01:21:01.762Z,96262.14
2019-04-01T01:23:27.789Z,96262.56
2019-04-01T01:25:53.940Z,96262.76
2019-04-01T01:28:19.964Z,96262.95
2019-04-01T01:30:46.114Z,96269.66
2019-04-01T01:33:12.251Z,96271.31
2019-04-01T01:35:38.438Z,96271.40
2019-04-01T01:38:04.595Z,96265.02
2019-04-01T01:40:32.078Z,96256.48
2019-04-01T01:42:58.247Z,96267.98
2019-04-01T01:45:24.433Z,96270.94
2019-04-01T01:47:50.548Z,96267.09
2019-04-01T01:50:16.698Z,96269.41
2019-04-01T01:52:44.241Z,96270.30
2019-04-01T01:55:10.407Z,96270.68
2019-04-01T01:57:36.723Z,96276.14
2019-04-01T02:00:03.480Z,96274.04
2019-04-01T02:02:29.496Z,96278.48
2019-04-01T02:04:55.544Z,96278.00
2019-04-01T02:07:21.587Z,96279.28
2019-04-01T02:09:47.716Z,96284.48
2019-04-01T02:12:13.927Z,96284.41
2019-04-01T02:14:40.083Z,96288.59
2019-04-01T02:17:06.229Z,96290.73
2019-04-01T02:19:32.378Z,96291.19
2019-04-01T02:21:58.433Z,96290.70
2019-04-01T02:24:24.344Z,96295.19
2019-04-01T02:26:50.409Z,96295.19
2019-04-01T02:29:16.543Z,96294.23
2019-04-01T02:31:42.603Z,96303.66
2019-04-01T02:34:08.645Z,96305.84
2019-04-01T02:36:34.673Z,96296.80
2019-04-01T02:39:00.789Z,96303.66
2019-04-01T02:41:26.821Z,96299.10
2019-04-01T02:43:52.963Z,96301.62
2019-04-01T02:46:19.078Z,96305.39
2019-04-01T02:48:45.260Z,96303.15
2019-04-01T02:51:11.385Z,96306.37
2019-04-01T02:53:37.517Z,96303.30
2019-04-01T02:56:03.704Z,96305.34
2019-04-01T02:58:29.821Z,96306.64
2019-04-01T03:00:55.969Z,96311.84
2019-04-01T03:03:22.095Z,96313.51
2019-04-01T03:05:48.341Z,96322.09
2019-04-01T03:08:14.339Z,96323.61
2019-04-01T03:10:44.826Z,96329.64
2019-04-01T03:13:08.496Z,96329.84
2019-04-01T03:15:34.651Z,96337.63
2019-04-01T03:18:00.801Z,96337.65
2019-04-01T03:20:26.936Z,96343.32
2019-04-01T03:22:53.088Z,96337.77
2019-04-01T03:25:19.218Z,96336.89
2019-04-01T03:27:45.341Z,96338.16
2019-04-01T03:30:11.599Z,96345.62
2019-04-01T03:32:44.267Z,96352.34
2019-04-01T03:35:05.886Z,96340.48
2019-04-01T03:37:31.983Z,96348.27
2019-04-01T03:39:58.118Z,96345.64
2019-04-01T03:42:24.265Z,96354.62
2019-04-01T03:44:54.826Z,96350.19
2019-04-01T03:47:18.765Z,96346.55
2019-04-01T03:49:44.990Z,96350.86
2019-04-01T03:52:11.146Z,96344.45
2019-04-01T03:54:37.300Z,96348.23
2019-04-01T03:57:03.562Z,96353.98
2019-04-01T03:59:29.701Z,96352.48
2019-04-01T04:01:55.766Z,96359.72
2019-04-01T04:04:21.890Z,96360.91
2019-04-01T04:06:48.061Z,96362.04
2019-04-01T04:09:14.069Z,96359.09
2019-04-01T04:11:40.225Z,96362.44
2019-04-01T04:14:06.257Z,96370.64
2019-04-01T04:16:32.400Z,96364.90
2019-04-01T04:18:58.530Z,96361.64
2019-04-01T04:21:24.694Z,96363.80
2019-04-01T04:23:50.833Z,96364.94
2019-04-01T04:26:16.968Z,96371.02
2019-04-01T04:28:43.027Z,96369.05
2019-04-01T04:31:09.157Z,96373.66
2019-04-01T04:33:35.291Z,96373.62
2019-04-01T04:36:01.302Z,96369.32
2019-04-01T04:38:27.486Z,96374.05
2019-04-01T04:40:53.603Z,96381.33
2019-04-01T04:43:19.810Z,96383.96
2019-04-01T04:45:45.833Z,96382.95
2019-04-01T04:48:11.965Z,96391.99
2019-04-01T04:50:38.108Z,96391.69
2019-04-01T04:53:04.355Z,96398.95
2019-04-01T04:55:30.517Z,96401.89
2019-04-01T04:57:56.649Z,96403.90
2019-04-01T05:00:22.814Z,96402.27
2019-04-01T05:02:49.013Z,96406.06
2019-04-01T05:05:15.152Z,96404.92
2019-04-01T05:07:41.169Z,96406.06
2019-04-01T05:10:07.701Z,96407.91
2019-04-01T05:12:33.834Z,96412.34
2019-04-01T05:14:59.967Z,96419.39
2019-04-01T05:17:26.230Z,96425.98
2019-04-01T05:19:52.393Z,96434.86
2019-04-01T05:22:20.437Z,96439.13
2019-04-01T05:24:46.820Z,96438.48
2019-04-01T05:27:13.755Z,96433.20
2019-04-01T05:29:40.598Z,96433.39
2019-04-01T05:32:10.316Z,96445.36
2019-04-01T05:34:38.274Z,96442.73
2019-04-01T05:37:04.552Z,96444.53
2019-04-01T05:39:30.870Z,96443.07
2019-04-01T05:41:57.034Z,96434.36
2019-04-01T05:44:23.244Z,96446.36
2019-04-01T05:46:49.441Z,96445.05
2019-04-01T05:49:15.594Z,96443.40
2019-04-01T05:51:41.838Z,96443.72
2019-04-01T05:54:07.973Z,96449.31
2019-04-01T05:56:34.297Z,96452.27
2019-04-01T05:59:00.457Z,96446.84
2019-04-01T06:01:28.516Z,96452.09
2019-04-01T06:03:54.864Z,96451.43
2019-04-01T06:06:23.448Z,96451.63
2019-04-01T06:08:50.855Z,96451.95
2019-04-01T06:11:17.027Z,96448.16
2019-04-01T06:13:43.304Z,96452.91
2019-04-01T06:16:09.633Z,96450.95
2019-04-01T06:18:35.793Z,96447.98
2019-04-01T06:21:01.976Z,96450.97
2019-04-01T06:23:28.215Z,96444.37
2019-04-01T06:25:54.521Z,96441.73
2019-04-01T06:28:20.672Z,96446.84
2019-04-01T06:30:48.253Z,96446.05
2019-04-01T06:33:14.402Z,96451.28
2019-04-01T06:35:41.916Z,96452.27
2019-04-01T06:38:08.063Z,96455.22
2019-04-01T06:40:34.217Z,96452.77
2019-04-01T06:43:01.559Z,96451.95
2019-04-01T06:45:27.747Z,96451.28
2019-04-01T06:47:53.864Z,96457.36
2019-04-01T06:50:20.124Z,96445.69
2019-04-01T06:52:46.244Z,96448.63
2019-04-01T06:55:12.472Z,96449.30
2019-04-01T06:57:38.605Z,96450.30
2019-04-01T07:00:04.748Z,96449.63
2019-04-01T07:02:30.934Z,96454.20
2019-04-01T07:04:57.075Z,96452.23
2019-04-01T07:07:23.339Z,96453.21
2019-04-01T07:09:50.751Z,96448.75
2019-04-01T07:12:17.227Z,96450.59
2019-04-01T07:14:43.450Z,96454.50
2019-04-01T07:17:09.799Z,96460.08
2019-04-01T07:19:35.934Z,96458.42
2019-04-01T07:22:02.075Z,96461.37
2019-04-01T07:24:28.229Z,96462.69
2019-04-01T07:26:56.434Z,96457.77
2019-04-01T07:29:23.051Z,96460.84
2019-04-01T07:31:49.177Z,96462.65
2019-04-01T07:34:15.299Z,96462.95
2019-04-01T07:36:41.337Z,96459.66
2019-04-01T07:39:07.459Z,96460.77
2019-04-01T07:41:33.595Z,96465.31
2019-04-01T07:44:01.136Z,96472.68
2019-04-01T07:46:27.296Z,96467.89
2019-04-01T07:48:53.444Z,96476.45
2019-04-01T07:51:20.484Z,96481.59
2019-04-01T07:53:46.615Z,96483.56
2019-04-01T07:56:12.773Z,96481.20
2019-04-01T07:58:38.930Z,96483.17
2019-04-01T08:01:05.043Z,96490.95
2019-04-01T08:03:32.855Z,96489.19
2019-04-01T08:05:59.108Z,96481.89
2019-04-01T08:08:25.264Z,96494.72
2019-04-01T08:10:52.494Z,96487.83
2019-04-01T08:13:18.625Z,96489.63
2019-04-01T08:15:45.155Z,96493.05
2019-04-01T08:18:11.296Z,96497.66
2019-04-01T08:20:37.415Z,96493.70
2019-04-01T08:23:03.597Z,96489.39
2019-04-01T08:25:29.719Z,96487.05
2019-04-01T08:27:55.830Z,96492.25
2019-04-01T08:30:22.031Z,96495.20
2019-04-01T08:32:48.155Z,96501.19
2019-04-01T08:35:14.331Z,96504.83
2019-04-01T08:37:40.874Z,96505.92
2019-04-01T08:40:08.420Z,96503.81
2019-04-01T08:42:34.539Z,96503.64
2019-04-01T08:45:00.662Z,96505.44
2019-04-01T08:47:26.814Z,96506.77
2019-04-01T08:49:52.956Z,96501.84
2019-04-01T08:52:21.254Z,96508.39
2019-04-01T08:54:47.398Z,96493.58
2019-04-01T08:57:14.157Z,96492.08
2019-04-01T08:59:40.297Z,96498.66
2019-04-01T09:02:17.014Z,96501.48
2019-04-01T09:04:35.778Z,96499.14
2019-04-01T09:07:02.061Z,96492.00
2019-04-01T09:09:29.061Z,96490.33
2019-04-01T09:11:56.332Z,96492.25
2019-04-01T09:14:22.477Z,96486.97
2019-04-01T09:16:48.910Z,96489.28
2019-04-01T09:19:15.036Z,96484.89
2019-04-01T09:21:41.233Z,96496.30
2019-04-01T09:24:07.415Z,96488.68
2019-04-01T09:26:33.533Z,96492.33
2019-04-01T09:28:59.714Z,96477.84
2019-04-01T09:31:25.855Z,96484.36
2019-04-01T09:33:51.911Z,96491.12
2019-04-01T09:36:18.152Z,96482.72
2019-04-01T09:38:44.301Z,96479.83
2019-04-01T09:41:13.322Z,96480.31
2019-04-01T09:43:38.436Z,96479.64
2019-04-01T09:46:04.567Z,96480.68
2019-04-01T09:48:31.268Z,96486.06
2019-04-01T09:50:57.399Z,96482.16
2019-04-01T09:53:23.519Z,96489.61
2019-04-01T09:55:49.544Z,96491.44
2019-04-01T09:58:15.702Z,96490.77
2019-04-01T10:00:41.945Z,96491.91
2019-04-01T10:03:08.109Z,96499.90
2019-04-01T10:05:34.231Z,96492.63
2019-04-01T10:08:00.378Z,96479.56
2019-04-01T10:10:26.505Z,96481.02
2019-04-01T10:12:52.633Z,96471.20
2019-04-01T10:15:18.754Z,96475.83
2019-04-01T10:17:44.944Z,96479.79
2019-04-01T10:20:11.194Z,96471.56
2019-04-01T10:22:37.344Z,96471.78
2019-04-01T10:25:05.177Z,96472.70
2019-04-01T10:27:31.505Z,96463.36
2019-04-01T10:29:58.638Z,96468.45
2019-04-01T10:32:24.745Z,96471.09
2019-04-01T10:34:50.989Z,96470.39
2019-04-01T10:37:17.022Z,96480.98
2019-04-01T10:39:43.140Z,96465.41
2019-04-01T10:42:09.255Z,96469.00
2019-04-01T10:44:35.414Z,96465.95
2019-04-01T10:47:01.860Z,96456.67
2019-04-01T10:49:28.226Z,96457.89
2019-04-01T10:51:54.218Z,96454.94
2019-04-01T10:54:20.413Z,96469.09
2019-04-01T10:56:46.616Z,96462.67
2019-04-01T10:59:12.835Z,96468.15
2019-04-01T11:01:41.603Z,96458.52
2019-04-01T11:04:07.972Z,96448.90
2019-04-01T11:06:34.307Z,96457.00
2019-04-01T11:09:00.529Z,96451.73
2019-04-01T11:11:27.342Z,96456.29
2019-04-01T11:13:54.077Z,96444.00
2019-04-01T11:16:20.554Z,96450.42
2019-04-01T11:18:46.818Z,96458.44
2019-04-01T11:21:13.023Z,96446.46
2019-04-01T11:23:39.594Z,96454.77
2019-04-01T11:26:05.721Z,96460.19
2019-04-01T11:28:31.829Z,96452.75
2019-04-01T11:30:58.002Z,96451.49
2019-04-01T11:33:24.464Z,96433.77
2019-04-01T11:35:50.639Z,96439.30
2019-04-01T11:38:16.682Z,96445.78
2019-04-01T11:40:43.995Z,96431.54
2019-04-01T11:43:10.209Z,96446.34
2019-04-01T11:45:36.360Z,96437.38
2019-04-01T11:48:02.496Z,96441.73
2019-04-01T11:50:28.759Z,96440.60
2019-04-01T11:52:54.898Z,96439.67
2019-04-01T11:55:25.123Z,96437.35
2019-04-01T11:57:49.071Z,96432.80
2019-04-01T12:00:17.032Z,96436.88
2019-04-01T12:02:43.203Z,96420.13
2019-04-01T12:05:09.510Z,96430.47
2019-04-01T12:07:35.672Z,96420.71
2019-04-01T12:10:02.124Z,96423.22
2019-04-01T12:12:28.340Z,96421.51
2019-04-01T12:14:54.999Z,96416.80
2019-04-01T12:17:21.140Z,96415.66
2019-04-01T12:19:57.199Z,96407.39
2019-04-01T12:22:23.386Z,96414.92
2019-04-01T12:24:49.635Z,96401.37
2019-04-01T12:27:16.344Z,96401.91
2019-04-01T12:29:42.731Z,96392.81
2019-04-01T12:32:08.867Z,96398.04
2019-04-01T12:34:34.885Z,96395.13
2019-04-01T12:37:01.036Z,96397.04
2019-04-01T12:39:27.178Z,96393.66
2019-04-01T12:41:53.305Z,96395.22
2019-04-01T12:44:19.449Z,96396.69
2019-04-01T12:46:45.661Z,96400.81
2019-04-01T12:49:11.783Z,96387.38
2019-04-01T12:51:40.666Z,96382.52
2019-04-01T12:54:07.014Z,96397.11
2019-04-01T12:56:33.140Z,96399.09
2019-04-01T12:58:59.378Z,96385.30
2019-04-01T13:01:25.546Z,96381.42
2019-04-01T13:03:51.791Z,96389.30
2019-04-01T13:06:20.584Z,96386.48
2019-04-01T13:08:47.801Z,96383.33
2019-04-01T13:11:13.945Z,96373.94
2019-04-01T13:13:40.095Z,96375.92
2019-04-01T13:16:09.013Z,96370.03
2019-04-01T13:18:34.257Z,96369.97
2019-04-01T13:21:00.406Z,96370.13
2019-04-01T13:23:40.039Z,96366.95
2019-04-01T13:26:03.578Z,96365.92
2019-04-01T13:28:29.801Z,96363.91
2019-04-01T13:30:55.931Z,96370.53
2019-04-01T13:33:22.261Z,96373.05
2019-04-01T13:35:48.533Z,96372.98
2019-04-01T13:38:16.480Z,96362.45
2019-04-01T13:40:44.201Z,96368.74
2019-04-01T13:43:11.465Z,96368.17
2019-04-01T13:45:38.641Z,96375.06
2019-04-01T13:48:05.020Z,96359.61
2019-04-01T13:50:31.746Z,96371.23
2019-04-01T13:52:58.639Z,96362.16
2019-04-01T13:55:24.915Z,96367.03
2019-04-01T13:57:52.412Z,96356.60
2019-04-01T14:00:20.278Z,96369.44
2019-04-01T14:02:46.639Z,96359.31
2019-04-01T14:05:13.392Z,96349.75
2019-04-01T14:07:40.612Z,96360.77
2019-04-01T14:10:06.834Z,96373.08
2019-04-01T14:12:32.985Z,96354.09
2019-04-01T14:14:59.149Z,96353.32
2019-04-01T14:17:25.296Z,96350.28
2019-04-01T14:19:51.409Z,96349.69
2019-04-01T14:22:17.570Z,96344.09
2019-04-01T14:24:45.209Z,96353.55
2019-04-01T14:27:12.045Z,96339.62
2019-04-01T14:29:38.159Z,96340.42
2019-04-01T14:32:04.528Z,96337.67
2019-04-01T14:34:31.136Z,96344.45
2019-04-01T14:36:57.262Z,96339.06
2019-04-01T14:39:23.434Z,96332.77
2019-04-01T14:41:49.704Z,96331.35
2019-04-01T14:44:15.838Z,96328.08
2019-04-01T14:46:43.039Z,96331.35
2019-04-01T14:49:11.420Z,96345.84
2019-04-01T14:51:37.558Z,96334.33
2019-04-01T14:54:03.697Z,96340.22
2019-04-01T14:56:29.860Z,96329.48
2019-04-01T14:58:55.980Z,96332.46
2019-04-01T15:01:22.233Z,96333.91
2019-04-01T15:03:48.264Z,96329.34
2019-04-01T15:06:14.421Z,96325.27
2019-04-01T15:08:40.655Z,96326.71
2019-04-01T15:11:12.322Z,96332.91
2019-04-01T15:13:39.277Z,96314.55
2019-04-01T15:16:05.719Z,96315.94
2019-04-01T15:18:34.326Z,96317.98
2019-04-01T15:21:00.098Z,96316.36
2019-04-01T15:23:27.433Z,96320.86
2019-04-01T15:25:54.511Z,96318.28
2019-04-01T15:28:20.829Z,96310.73
2019-04-01T15:30:47.036Z,96314.48
2019-04-01T15:33:13.160Z,96318.95
2019-04-01T15:35:39.277Z,96304.69
2019-04-01T15:38:05.431Z,96304.81
2019-04-01T15:40:57.993Z,96310.64
2019-04-01T15:43:22.471Z,96310.28
2019-04-01T15:45:48.683Z,96312.53
2019-04-01T15:48:14.912Z,96314.94
2019-04-01T15:50:41.159Z,96317.69
2019-04-01T15:53:07.292Z,96322.72
2019-04-01T15:55:33.473Z,96317.03
2019-04-01T15:57:59.718Z,96310.51
2019-04-01T16:00:25.943Z,96309.88
2019-04-01T16:02:52.086Z,96311.50
2019-04-01T16:05:18.257Z,96307.30
2019-04-01T16:07:44.394Z,96309.16
2019-04-01T16:10:11.061Z,96311.37
2019-04-01T16:12:37.221Z,96309.25
2019-04-01T16:15:27.801Z,96312.53
2019-04-01T16:17:54.160Z,96314.02
2019-04-01T16:20:20.488Z,96314.58
2019-04-01T16:22:46.822Z,96317.14
2019-04-01T16:25:13.497Z,96317.86
2019-04-01T16:27:42.820Z,96315.02
2019-04-01T16:30:09.326Z,96314.83
2019-04-01T16:32:36.252Z,96308.08
2019-04-01T16:35:04.216Z,96318.30
2019-04-01T16:37:30.465Z,96316.41
2019-04-01T16:39:58.399Z,96314.64
2019-04-01T16:42:24.543Z,96308.91
2019-04-01T16:44:53.974Z,96308.17
2019-04-01T16:47:18.837Z,96313.52
2019-04-01T16:49:45.086Z,96308.75
2019-04-01T16:52:11.537Z,96310.13
2019-04-01T16:54:38.126Z,96318.88
2019-04-01T16:57:06.172Z,96314.78
2019-04-01T16:59:32.555Z,96327.94
2019-04-01T17:01:58.813Z,96321.34
2019-04-01T17:04:25.053Z,96323.15
2019-04-01T17:06:53.199Z,96328.77
2019-04-01T17:09:19.459Z,96339.18
2019-04-01T17:11:45.696Z,96339.94
2019-04-01T17:14:11.945Z,96338.73
2019-04-01T17:16:38.617Z,96344.73
2019-04-01T17:19:04.805Z,96345.27
2019-04-01T17:21:31.066Z,96343.55
2019-04-01T17:23:58.404Z,96345.41
2019-04-01T17:26:25.516Z,96345.30
2019-04-01T17:28:51.768Z,96353.94
2019-04-01T17:31:18.004Z,96356.84
2019-04-01T17:33:44.264Z,96356.24
2019-04-01T17:36:11.165Z,96364.50
2019-04-01T17:38:37.666Z,96364.91
2019-04-01T17:41:04.190Z,96369.33
2019-04-01T17:43:32.252Z,96381.98
2019-04-01T17:45:58.499Z,96378.13
2019-04-01T17:48:24.664Z,96383.06
2019-04-01T17:50:50.824Z,96382.20
2019-04-01T17:53:17.068Z,96389.95
2019-04-01T17:55:45.528Z,96391.84
2019-04-01T17:58:11.495Z,96399.18
2019-04-01T18:00:39.575Z,96405.20
2019-04-01T18:03:09.189Z,96406.27
2019-04-01T18:05:33.843Z,96419.81
2019-04-01T18:08:00.004Z,96413.66
2019-04-01T18:10:28.042Z,96420.01
2019-04-01T18:12:54.643Z,96422.23
2019-04-01T18:15:20.854Z,96413.28
2019-04-01T18:17:47.155Z,96423.69
2019-04-01T18:20:13.393Z,96428.48
2019-04-01T18:22:39.632Z,96424.70
2019-04-01T18:25:06.255Z,96426.20
2019-04-01T18:27:32.375Z,96424.08
2019-04-01T18:30:00.352Z,96435.60
2019-04-01T18:32:26.674Z,96436.77
2019-04-01T18:34:52.910Z,96430.88
2019-04-01T18:37:19.182Z,96434.19
2019-04-01T18:39:48.470Z,96435.17
2019-04-01T18:42:13.588Z,96440.13
2019-04-01T18:44:39.811Z,96443.08
2019-04-01T18:47:06.003Z,96450.97
2019-04-01T18:49:32.275Z,96453.59
2019-04-01T18:51:58.575Z,96458.50
2019-04-01T18:54:24.902Z,96458.83
2019-04-01T18:56:51.137Z,96454.52
2019-04-01T18:59:17.382Z,96458.77
2019-04-01T19:01:44.208Z,96463.84
2019-04-01T19:04:11.931Z,96458.08
2019-04-01T19:06:38.230Z,96462.67
2019-04-01T19:09:09.354Z,96462.47
2019-04-01T19:11:34.858Z,96459.66
2019-04-01T19:14:01.271Z,96459.31
2019-04-01T19:16:27.554Z,96461.11
2019-04-01T19:18:53.675Z,96465.02
2019-04-01T19:21:19.847Z,96460.58
2019-04-01T19:23:46.082Z,96460.39
2019-04-01T19:26:12.224Z,96459.36
2019-04-01T19:28:38.414Z,96459.53
2019-04-01T19:31:04.554Z,96454.89
2019-04-01T19:33:30.714Z,96460.45
2019-04-01T19:35:56.860Z,96462.91
2019-04-01T19:38:22.998Z,96469.27
2019-04-01T19:40:49.168Z,96462.02
2019-04-01T19:43:16.351Z,96472.50
2019-04-01T19:45:43.181Z,96465.71
2019-04-01T19:48:09.317Z,96471.58
2019-04-01T19:50:35.471Z,96466.82
2019-04-01T19:53:03.681Z,96461.85
2019-04-01T19:55:30.075Z,96476.54
2019-04-01T19:57:58.333Z,96473.13
2019-04-01T20:00:27.936Z,96472.25
2019-04-01T20:02:52.958Z,96475.17
2019-04-01T20:05:20.185Z,96469.05
2019-04-01T20:07:53.242Z,96471.42
2019-04-01T20:10:19.536Z,96469.94
2019-04-01T20:12:50.691Z,96474.98
2019-04-01T20:15:21.042Z,96474.92
2019-04-01T20:17:47.491Z,96477.84
2019-04-01T20:20:14.857Z,96479.94
2019-04-01T20:22:41.318Z,96478.78
2019-04-01T20:25:10.928Z,96484.97
2019-04-01T20:27:39.277Z,96480.05
2019-04-01T20:30:09.120Z,96486.90
2019-04-01T20:32:35.492Z,96483.58
2019-04-01T20:35:01.627Z,96483.22
2019-04-01T20:37:29.111Z,96483.53
2019-04-01T20:39:55.641Z,96484.36
2019-04-01T20:42:21.885Z,96479.25
2019-04-01T20:44:48.019Z,96475.45
2019-04-01T20:47:14.174Z,96477.87
2019-04-01T20:49:40.319Z,96476.55
2019-04-01T20:52:06.451Z,96469.99
2019-04-01T20:54:32.617Z,96476.48
2019-04-01T20:56:58.776Z,96472.50
2019-04-01T20:59:24.932Z,96484.58
2019-04-01T21:01:51.066Z,96486.52
2019-04-01T21:04:17.106Z,96476.83
2019-04-01T21:06:43.226Z,96478.89
2019-04-01T21:09:09.454Z,96478.20
2019-04-01T21:11:35.611Z,96478.00
2019-04-01T21:14:03.094Z,96476.21
2019-04-01T21:16:29.381Z,96476.19
2019-04-01T21:18:55.514Z,96477.44
2019-04-01T21:21:21.708Z,96474.77
2019-04-01T21:23:47.843Z,96471.61
2019-04-01T21:26:14.022Z,96476.13
2019-04-01T21:28:40.155Z,96477.23
2019-04-01T21:31:06.355Z,96474.59
2019-04-01T21:33:32.588Z,96477.20
2019-04-01T21:35:58.719Z,96466.23
2019-04-01T21:38:24.862Z,96474.77
2019-04-01T21:40:50.989Z,96475.92
2019-04-01T21:43:17.227Z,96470.30
2019-04-01T21:45:44.925Z,96469.45
2019-04-01T21:48:11.243Z,96468.84
2019-04-01T21:50:37.472Z,96472.11
2019-04-01T21:53:03.607Z,96460.97
2019-04-01T21:55:29.743Z,96467.91
2019-04-01T21:57:55.876Z,96462.36
2019-04-01T22:00:44.956Z,96462.51
2019-04-01T22:03:12.306Z,96463.57
2019-04-01T22:05:39.348Z,96459.73
2019-04-01T22:08:06.276Z,96455.65
2019-04-01T22:10:33.354Z,96468.72
2019-04-01T22:12:59.486Z,96465.06
2019-04-01T22:15:25.622Z,96464.05
2019-04-01T22:17:51.778Z,96461.72
2019-04-01T22:20:17.915Z,96462.56
2019-04-01T22:22:44.169Z,96462.41
2019-04-01T22:25:10.338Z,96465.35
2019-04-01T22:27:36.470Z,96464.67
2019-04-01T22:30:05.988Z,96464.48
2019-04-01T22:32:32.122Z,96460.71
2019-04-01T22:34:58.265Z,96459.34
2019-04-01T22:37:27.360Z,96470.08
2019-04-01T22:39:52.548Z,96466.86
2019-04-01T22:42:18.723Z,96464.33
2019-04-01T22:44:44.844Z,96456.45
2019-04-01T22:47:11.008Z,96468.49
2019-04-01T22:49:37.157Z,96455.22
2019-04-01T22:52:03.273Z,96459.61
2019-04-01T22:54:30.218Z,96455.69
2019-04-01T22:56:57.295Z,96450.14
2019-04-01T22:59:23.578Z,96447.81
2019-04-01T23:01:50.016Z,96450.91
2019-04-01T23:04:16.165Z,96449.27
2019-04-01T23:06:42.327Z,96445.28
2019-04-01T23:09:08.448Z,96438.28
2019-04-01T23:11:34.678Z,96429.75
2019-04-01T23:14:00.734Z,96429.64
2019-04-01T23:16:27.221Z,96434.17
2019-04-01T23:18:53.361Z,96434.47
2019-04-01T23:21:19.519Z,96435.37
2019-04-01T23:23:45.578Z,96425.80
2019-04-01T23:26:11.619Z,96425.14
2019-04-01T23:28:37.828Z,96428.37
2019-04-01T23:31:04.067Z,96426.98
2019-04-01T23:33:30.222Z,96427.27
2019-04-01T23:35:56.507Z,96429.88
2019-04-01T23:38:22.630Z,96426.44
2019-04-01T23:40:49.681Z,96428.25
2019-04-01T23:43:15.844Z,96423.03
2019-04-01T23:45:41.983Z,96428.86
2019-04-01T23:48:08.124Z,96428.03
2019-04-01T23:50:34.286Z,96420.77
2019-04-01T23:56:03.651Z,96422.47
2019-04-01T23:58:29.911Z,96419.53
